createdAt,value
2019-05-22T00:00:24.984Z,12.30
2019-05-22T00:02:55.231Z,12.30
2019-05-22T00:05:45.086Z,12.30
2019-05-22T00:08:16.183Z,12.30
2019-05-22T00:10:49.215Z,12.30
2019-05-22T00:13:23.151Z,12.30
2019-05-22T00:15:54.615Z,12.30
2019-05-22T00:18:25.546Z,12.30
2019-05-22T00:20:57.407Z,12.30
2019-05-22T00:23:28.553Z,12.30
2019-05-22T00:25:58.981Z,12.30
2019-05-22T00:28:31.607Z,12.30
2019-05-22T00:31:06.493Z,12.30
2019-05-22T00:33:36.990Z,12.20
2019-05-22T00:36:08.268Z,12.20
2019-05-22T00:38:39.778Z,12.20
2019-05-22T00:41:11.955Z,12.20
2019-05-22T00:43:44.553Z,12.10
2019-05-22T00:46:20.586Z,12.20
2019-05-22T00:48:52.150Z,12.10
2019-05-22T00:51:47.333Z,12.10
2019-05-22T00:54:34.413Z,12.10
2019-05-22T00:57:11.042Z,12.10
2019-05-22T00:59:42.842Z,12.10
2019-05-22T01:02:15.256Z,12.00
2019-05-22T01:04:47.110Z,12.00
2019-05-22T01:07:18.458Z,12.00
2019-05-22T01:09:51.295Z,12.00
2019-05-22T01:12:29.630Z,12.00
2019-05-22T01:15:04.336Z,12.00
2019-05-22T01:17:36.780Z,12.00
2019-05-22T01:20:12.911Z,12.00
2019-05-22T01:22:46.789Z,11.90
2019-05-22T01:25:20.096Z,11.90
2019-05-22T01:27:50.052Z,11.80
2019-05-22T01:30:40.446Z,11.80
2019-05-22T01:33:13.191Z,11.90
2019-05-22T01:35:48.954Z,11.80
2019-05-22T01:38:20.990Z,11.90
2019-05-22T01:40:55.278Z,11.90
2019-05-22T01:43:27.694Z,11.80
2019-05-22T01:46:01.614Z,11.80
2019-05-22T01:48:36.857Z,11.80
2019-05-22T01:51:09.708Z,11.80
2019-05-22T01:53:41.179Z,11.80
2019-05-22T01:56:12.787Z,11.80
2019-05-22T01:58:43.681Z,11.80
2019-05-22T02:01:19.272Z,11.80
2019-05-22T02:03:50.722Z,11.80
2019-05-22T02:06:23.970Z,11.80
2019-05-22T02:09:06.252Z,11.90
2019-05-22T02:11:38.183Z,11.80
2019-05-22T02:14:14.722Z,11.80
2019-05-22T02:16:55.979Z,11.80
2019-05-22T02:19:20.735Z,11.80
2019-05-22T02:21:50.610Z,11.80
2019-05-22T02:24:21.287Z,11.80
2019-05-22T02:26:52.669Z,11.80
2019-05-22T02:29:23.965Z,11.80
2019-05-22T02:31:56.359Z,11.80
2019-05-22T02:34:28.452Z,11.80
2019-05-22T02:36:59.238Z,11.80
2019-05-22T02:39:32.902Z,11.80
2019-05-22T02:42:14.412Z,11.80
2019-05-22T02:44:45.746Z,11.90
2019-05-22T02:47:20.444Z,12.00
2019-05-22T02:49:50.315Z,12.40
2019-05-22T02:52:20.306Z,12.70
2019-05-22T02:54:49.881Z,13.00
2019-05-22T02:57:20.693Z,13.10
2019-05-22T02:59:51.157Z,13.40
2019-05-22T03:02:23.460Z,13.40
2019-05-22T03:05:07.504Z,13.30
2019-05-22T03:07:40.332Z,13.40
2019-05-22T03:10:15.981Z,12.90
2019-05-22T03:12:46.293Z,12.60
2019-05-22T03:15:19.181Z,12.60
2019-05-22T03:17:52.327Z,12.50
2019-05-22T03:20:24.056Z,12.40
2019-05-22T03:23:38.640Z,12.40
2019-05-22T03:26:10.833Z,12.50
2019-05-22T03:28:42.076Z,12.60
2019-05-22T03:31:13.897Z,12.60
2019-05-22T03:33:44.569Z,13.60
2019-05-22T03:36:21.165Z,14.00
2019-05-22T03:38:51.903Z,13.40
2019-05-22T03:41:30.236Z,13.50
2019-05-22T03:44:01.306Z,14.20
2019-05-22T03:46:40.214Z,14.60
2019-05-22T03:49:27.950Z,15.30
2019-05-22T03:51:48.349Z,16.10
2019-05-22T03:54:19.734Z,16.10
2019-05-22T03:56:52.301Z,16.30
2019-05-22T03:59:23.675Z,16.40
2019-05-22T04:01:55.131Z,16.40
2019-05-22T04:04:38.877Z,16.60
2019-05-22T04:07:14.155Z,16.20
2019-05-22T04:09:46.267Z,16.30
2019-05-22T04:12:17.093Z,16.00
2019-05-22T04:14:47.732Z,15.60
2019-05-22T04:17:17.510Z,15.80
2019-05-22T04:19:51.411Z,16.40
2019-05-22T04:22:20.477Z,16.50
2019-05-22T04:24:52.368Z,16.90
2019-05-22T04:27:23.578Z,15.70
2019-05-22T04:29:54.180Z,15.60
2019-05-22T04:32:33.135Z,16.40
2019-05-22T04:35:05.101Z,16.60
2019-05-22T04:37:37.382Z,16.70
2019-05-22T04:40:48.868Z,16.10
2019-05-22T04:43:21.363Z,15.60
2019-05-22T04:45:54.340Z,15.20
2019-05-22T04:48:27.065Z,15.20
2019-05-22T04:50:58.999Z,15.20
2019-05-22T04:53:29.979Z,14.60
2019-05-22T04:56:00.131Z,14.70
2019-05-22T04:58:34.881Z,14.70
2019-05-22T05:01:04.998Z,14.40
2019-05-22T05:03:35.637Z,14.40
2019-05-22T05:06:07.032Z,14.50
2019-05-22T05:08:37.526Z,14.30
2019-05-22T05:11:07.594Z,14.50
2019-05-22T05:13:37.659Z,14.50
2019-05-22T05:16:08.043Z,14.40
2019-05-22T05:18:38.077Z,14.40
2019-05-22T05:21:07.960Z,14.40
2019-05-22T05:23:37.800Z,14.60
2019-05-22T05:26:07.920Z,15.00
2019-05-22T05:28:38.475Z,15.50
2019-05-22T05:31:09.703Z,15.80
2019-05-22T05:34:07.522Z,15.30
2019-05-22T05:36:37.815Z,15.40
2019-05-22T05:39:15.192Z,15.40
2019-05-22T05:41:44.920Z,15.20
2019-05-22T05:44:15.487Z,15.20
2019-05-22T05:46:45.983Z,15.30
2019-05-22T05:49:17.044Z,15.10
2019-05-22T05:51:46.966Z,15.00
2019-05-22T05:54:19.289Z,15.00
2019-05-22T05:56:50.620Z,15.00
2019-05-22T05:59:21.793Z,15.10
2019-05-22T06:01:55.904Z,15.20
2019-05-22T06:04:38.003Z,15.20
2019-05-22T06:07:24.960Z,15.20
2019-05-22T06:10:23.894Z,15.40
2019-05-22T06:12:54.107Z,15.40
2019-05-22T06:15:45.978Z,15.90
2019-05-22T06:18:42.199Z,16.10
2019-05-22T06:21:11.709Z,16.10
2019-05-22T06:24:18.135Z,16.30
2019-05-22T06:27:10.930Z,16.30
2019-05-22T06:29:51.262Z,16.20
2019-05-22T06:33:01.686Z,15.90
2019-05-22T06:35:37.893Z,16.20
2019-05-22T06:38:46.205Z,16.00
2019-05-22T06:41:15.845Z,16.10
2019-05-22T06:44:39.769Z,16.10
2019-05-22T06:47:13.695Z,16.20
2019-05-22T06:49:55.643Z,15.80
2019-05-22T06:52:25.993Z,15.70
2019-05-22T06:54:56.559Z,15.90
2019-05-22T06:57:35.116Z,15.60
2019-05-22T07:00:22.028Z,15.80
2019-05-22T07:02:51.570Z,15.90
2019-05-22T07:05:22.052Z,15.80
2019-05-22T07:07:52.382Z,15.90
2019-05-22T07:10:22.639Z,15.80
2019-05-22T07:12:52.150Z,15.90
2019-05-22T07:15:34.464Z,16.00
2019-05-22T07:18:05.540Z,15.90
2019-05-22T07:20:38.087Z,15.80
2019-05-22T07:23:13.756Z,15.80
2019-05-22T07:25:44.858Z,15.80
2019-05-22T07:28:18.191Z,15.80
2019-05-22T07:30:50.597Z,15.90
2019-05-22T07:33:22.971Z,15.80
2019-05-22T07:36:12.180Z,16.00
2019-05-22T07:38:25.745Z,16.00
2019-05-22T07:40:56.683Z,16.00
2019-05-22T07:43:27.200Z,15.90
2019-05-22T07:45:59.534Z,16.30
2019-05-22T07:48:30.984Z,16.50
2019-05-22T07:51:04.218Z,16.40
2019-05-22T07:53:34.299Z,16.50
2019-05-22T07:56:07.457Z,16.70
2019-05-22T07:58:38.576Z,16.40
2019-05-22T08:01:09.888Z,16.50
2019-05-22T08:03:42.871Z,16.50
2019-05-22T08:06:12.863Z,16.40
2019-05-22T08:08:45.309Z,16.50
2019-05-22T08:11:15.960Z,16.50
2019-05-22T08:13:47.467Z,16.50
2019-05-22T08:16:18.237Z,16.70
2019-05-22T08:18:49.279Z,16.60
2019-05-22T08:21:23.239Z,16.50
2019-05-22T08:23:52.934Z,16.60
2019-05-22T08:26:23.907Z,16.60
2019-05-22T08:28:54.030Z,16.70
2019-05-22T08:31:25.663Z,16.70
2019-05-22T08:33:56.320Z,16.80
2019-05-22T08:36:26.766Z,16.70
2019-05-22T08:38:57.547Z,16.70
2019-05-22T08:41:33.182Z,16.70
2019-05-22T08:44:16.125Z,16.70
2019-05-22T08:46:37.813Z,16.40
2019-05-22T08:49:09.457Z,16.60
2019-05-22T08:51:39.995Z,16.40
2019-05-22T08:54:11.666Z,16.40
2019-05-22T08:56:46.113Z,16.30
2019-05-22T08:59:19.869Z,16.30
2019-05-22T09:01:49.232Z,16.40
2019-05-22T09:04:19.369Z,16.40
2019-05-22T09:06:49.639Z,16.20
2019-05-22T09:09:20.425Z,16.30
2019-05-22T09:11:51.272Z,16.40
2019-05-22T09:14:22.209Z,16.60
2019-05-22T09:16:53.108Z,16.30
2019-05-22T09:19:23.958Z,16.30
2019-05-22T09:21:55.579Z,16.20
2019-05-22T09:24:28.701Z,16.20
2019-05-22T09:27:02.619Z,15.80
2019-05-22T09:29:30.787Z,15.50
2019-05-22T09:32:01.267Z,15.60
2019-05-22T09:34:31.875Z,15.50
2019-05-22T09:37:02.292Z,15.50
2019-05-22T09:39:32.674Z,15.60
2019-05-22T09:42:02.901Z,15.50
2019-05-22T09:44:33.032Z,15.70
2019-05-22T09:47:03.505Z,15.70
2019-05-22T09:49:33.384Z,15.80
2019-05-22T09:52:05.078Z,15.90
2019-05-22T09:54:35.649Z,16.00
2019-05-22T09:57:07.987Z,15.90
2019-05-22T09:59:38.008Z,16.10
2019-05-22T10:02:09.054Z,15.90
2019-05-22T10:04:39.442Z,15.90
2019-05-22T10:07:10.022Z,15.80
2019-05-22T10:09:41.182Z,15.80
2019-05-22T10:12:12.399Z,16.00
2019-05-22T10:14:43.372Z,15.80
2019-05-22T10:17:14.425Z,15.80
2019-05-22T10:19:44.758Z,15.80
2019-05-22T10:22:16.216Z,16.00
2019-05-22T10:24:50.150Z,16.00
2019-05-22T10:27:20.413Z,16.20
2019-05-22T10:29:51.814Z,16.30
2019-05-22T10:32:22.097Z,16.30
2019-05-22T10:34:57.588Z,16.50
2019-05-22T10:37:26.600Z,16.30
2019-05-22T10:39:57.666Z,16.20
2019-05-22T10:42:31.484Z,16.30
2019-05-22T10:45:01.872Z,16.20
2019-05-22T10:47:31.883Z,16.30
2019-05-22T10:50:02.034Z,16.30
2019-05-22T10:52:32.832Z,16.30
2019-05-22T10:55:04.855Z,16.30
2019-05-22T10:57:35.049Z,16.10
2019-05-22T11:00:08.057Z,16.10
2019-05-22T11:02:37.985Z,15.90
2019-05-22T11:05:09.873Z,16.00
2019-05-22T11:07:40.423Z,15.80
2019-05-22T11:10:12.300Z,16.20
2019-05-22T11:12:42.200Z,16.70
2019-05-22T11:15:13.066Z,16.70
2019-05-22T11:17:44.551Z,17.10
2019-05-22T11:20:16.031Z,17.10
2019-05-22T11:22:45.750Z,17.50
2019-05-22T11:25:16.925Z,17.80
2019-05-22T11:27:46.477Z,17.90
2019-05-22T11:30:18.959Z,18.10
2019-05-22T11:32:48.866Z,18.10
2019-05-22T11:35:21.457Z,18.70
2019-05-22T11:37:51.175Z,18.30
2019-05-22T11:40:23.755Z,18.20
2019-05-22T11:42:54.241Z,18.30
2019-05-22T11:45:25.018Z,18.30
2019-05-22T11:47:55.099Z,18.30
2019-05-22T11:50:25.548Z,18.00
2019-05-22T11:52:55.744Z,17.80
2019-05-22T11:55:42.574Z,17.90
2019-05-22T11:57:57.903Z,18.00
2019-05-22T12:00:27.845Z,18.40
2019-05-22T12:02:57.692Z,18.30
2019-05-22T12:05:28.215Z,18.40
2019-05-22T12:07:59.207Z,18.50
2019-05-22T12:10:29.567Z,18.10
2019-05-22T12:13:00.518Z,18.20
2019-05-22T12:15:34.668Z,18.30
2019-05-22T12:18:07.111Z,18.40
2019-05-22T12:20:37.597Z,18.70
2019-05-22T12:23:07.829Z,19.20
2019-05-22T12:25:38.137Z,18.40
2019-05-22T12:28:07.971Z,18.60
2019-05-22T12:30:38.223Z,18.90
2019-05-22T12:33:13.917Z,19.00
2019-05-22T12:35:42.558Z,19.00
2019-05-22T12:38:14.942Z,19.20
2019-05-22T12:40:46.778Z,19.40
2019-05-22T12:43:17.984Z,19.40
2019-05-22T12:45:47.467Z,19.50
2019-05-22T12:48:18.890Z,19.20
2019-05-22T12:50:50.574Z,19.40
2019-05-22T12:53:22.726Z,19.30
2019-05-22T12:55:53.821Z,18.90
2019-05-22T12:58:24.593Z,19.00
2019-05-22T13:00:55.520Z,19.00
2019-05-22T13:03:27.540Z,19.00
2019-05-22T13:05:58.028Z,19.10
2019-05-22T13:08:28.745Z,19.10
2019-05-22T13:10:59.546Z,19.00
2019-05-22T13:13:30.067Z,18.90
2019-05-22T13:16:01.415Z,19.10
2019-05-22T13:18:33.111Z,19.00
2019-05-22T13:21:05.908Z,18.90
2019-05-22T13:23:41.718Z,18.60
2019-05-22T13:26:12.219Z,17.40
2019-05-22T13:28:47.558Z,17.30
2019-05-22T13:31:18.714Z,17.20
2019-05-22T13:33:50.765Z,17.00
2019-05-22T13:36:21.479Z,17.20
2019-05-22T13:38:51.908Z,17.10
2019-05-22T13:41:22.267Z,17.10
2019-05-22T13:43:53.087Z,17.40
2019-05-22T13:46:22.845Z,17.50
2019-05-22T13:48:53.047Z,17.80
2019-05-22T13:51:23.024Z,18.40
2019-05-22T13:53:53.880Z,18.80
2019-05-22T13:56:25.631Z,19.20
2019-05-22T13:58:56.471Z,19.10
2019-05-22T14:01:26.872Z,19.30
2019-05-22T14:03:57.584Z,19.30
2019-05-22T14:06:28.449Z,19.20
2019-05-22T14:08:58.716Z,19.50
2019-05-22T14:11:29.394Z,19.30
2019-05-22T14:14:03.147Z,19.10
2019-05-22T14:16:47.742Z,19.10
2019-05-22T14:19:04.752Z,19.30
2019-05-22T14:21:35.596Z,19.40
2019-05-22T14:24:05.965Z,19.20
2019-05-22T14:26:36.454Z,19.40
2019-05-22T14:29:06.476Z,19.50
2019-05-22T14:31:37.159Z,19.30
2019-05-22T14:34:07.209Z,19.40
2019-05-22T14:36:38.000Z,19.30
2019-05-22T14:39:10.257Z,19.20
2019-05-22T14:41:40.038Z,19.10
2019-05-22T14:44:09.892Z,18.70
2019-05-22T14:46:39.853Z,18.40
2019-05-22T14:49:09.839Z,18.00
2019-05-22T14:51:39.948Z,17.70
2019-05-22T14:54:10.867Z,17.50
2019-05-22T14:56:42.163Z,17.50
2019-05-22T14:59:12.783Z,17.40
2019-05-22T15:01:43.696Z,17.50
2019-05-22T15:04:15.315Z,17.40
2019-05-22T15:06:45.921Z,17.60
2019-05-22T15:09:16.062Z,17.80
2019-05-22T15:11:46.106Z,17.90
2019-05-22T15:14:16.770Z,18.00
2019-05-22T15:16:47.053Z,18.10
2019-05-22T15:19:17.162Z,18.20
2019-05-22T15:21:47.008Z,18.30
2019-05-22T15:24:17.514Z,18.60
2019-05-22T15:26:47.980Z,18.70
2019-05-22T15:29:19.128Z,18.70
2019-05-22T15:31:49.664Z,18.40
2019-05-22T15:34:20.034Z,18.50
2019-05-22T15:36:51.078Z,18.70
2019-05-22T15:39:25.846Z,19.00
2019-05-22T15:41:57.547Z,19.10
2019-05-22T15:44:28.145Z,19.40
2019-05-22T15:46:59.394Z,19.30
2019-05-22T15:49:30.135Z,19.70
2019-05-22T15:52:01.224Z,19.90
2019-05-22T15:54:33.799Z,20.20
2019-05-22T15:57:09.527Z,20.40
2019-05-22T15:59:40.259Z,20.50
2019-05-22T16:02:15.311Z,21.00
2019-05-22T16:04:46.625Z,21.10
2019-05-22T16:07:18.706Z,20.80
2019-05-22T16:09:50.059Z,19.50
2019-05-22T16:12:19.886Z,19.10
2019-05-22T16:14:50.007Z,18.80
2019-05-22T16:17:21.800Z,18.50
2019-05-22T16:19:53.487Z,18.50
2019-05-22T16:22:24.391Z,18.50
2019-05-22T16:24:54.971Z,18.10
2019-05-22T16:27:25.757Z,18.20
2019-05-22T16:29:56.288Z,18.10
2019-05-22T16:32:29.431Z,18.20
2019-05-22T16:34:59.615Z,18.10
2019-05-22T16:37:30.743Z,17.90
2019-05-22T16:40:04.523Z,18.00
2019-05-22T16:42:36.230Z,18.10
2019-05-22T16:45:06.894Z,17.90
2019-05-22T16:47:38.003Z,17.90
2019-05-22T16:50:10.051Z,17.70
2019-05-22T16:52:42.931Z,17.90
2019-05-22T16:55:16.593Z,17.80
2019-05-22T16:57:47.379Z,17.80
2019-05-22T17:00:18.045Z,17.80
2019-05-22T17:02:49.536Z,17.90
2019-05-22T17:05:20.836Z,17.80
2019-05-22T17:07:52.186Z,17.90
2019-05-22T17:10:23.579Z,17.90
2019-05-22T17:12:54.829Z,18.10
2019-05-22T17:15:24.646Z,18.10
2019-05-22T17:17:54.558Z,18.40
2019-05-22T17:20:27.136Z,18.40
2019-05-22T17:22:58.095Z,18.10
2019-05-22T17:25:29.445Z,18.00
2019-05-22T17:27:59.293Z,18.00
2019-05-22T17:30:32.935Z,17.80
2019-05-22T17:33:03.067Z,17.60
2019-05-22T17:35:34.202Z,17.70
2019-05-22T17:38:06.116Z,17.90
2019-05-22T17:40:37.481Z,18.70
2019-05-22T17:43:11.839Z,18.60
2019-05-22T17:45:43.741Z,18.70
2019-05-22T17:48:15.616Z,18.90
2019-05-22T17:50:47.197Z,18.80
2019-05-22T17:53:17.806Z,19.00
2019-05-22T17:55:49.742Z,19.10
2019-05-22T17:58:19.367Z,18.70
2019-05-22T18:00:49.695Z,18.30
2019-05-22T18:03:20.119Z,18.20
2019-05-22T18:05:49.828Z,18.10
2019-05-22T18:08:20.315Z,18.00
2019-05-22T18:10:51.006Z,18.00
2019-05-22T18:13:21.190Z,17.80
2019-05-22T18:15:51.264Z,17.70
2019-05-22T18:18:21.638Z,17.70
2019-05-22T18:20:52.199Z,17.70
2019-05-22T18:23:21.848Z,17.50
2019-05-22T18:25:51.959Z,17.50
2019-05-22T18:28:22.483Z,17.20
2019-05-22T18:30:52.710Z,17.20
2019-05-22T18:33:22.939Z,17.10
2019-05-22T18:35:53.305Z,17.10
2019-05-22T18:38:23.537Z,17.00
2019-05-22T18:40:55.682Z,16.90
2019-05-22T18:43:26.286Z,17.00
2019-05-22T18:45:57.586Z,16.90
2019-05-22T18:48:27.947Z,16.90
2019-05-22T18:50:57.867Z,16.80
2019-05-22T18:53:28.485Z,16.80
2019-05-22T18:55:58.412Z,16.70
2019-05-22T18:58:28.642Z,16.60
2019-05-22T19:00:58.355Z,16.70
2019-05-22T19:03:28.799Z,16.60
2019-05-22T19:05:58.274Z,16.60
2019-05-22T19:08:28.675Z,16.40
2019-05-22T19:10:58.711Z,16.50
2019-05-22T19:13:28.821Z,16.40
2019-05-22T19:16:02.687Z,16.40
2019-05-22T19:18:33.524Z,16.50
2019-05-22T19:21:04.754Z,16.50
2019-05-22T19:23:34.619Z,16.20
2019-05-22T19:26:06.000Z,16.20
2019-05-22T19:28:43.610Z,16.20
2019-05-22T19:31:11.823Z,16.10
2019-05-22T19:33:42.367Z,16.30
2019-05-22T19:36:12.673Z,16.10
2019-05-22T19:38:43.742Z,16.10
2019-05-22T19:41:14.555Z,16.10
2019-05-22T19:43:44.907Z,16.00
2019-05-22T19:46:15.364Z,16.10
2019-05-22T19:48:45.736Z,16.00
2019-05-22T19:51:19.885Z,16.10
2019-05-22T19:53:51.245Z,16.10
2019-05-22T19:56:23.782Z,16.20
2019-05-22T19:58:52.818Z,16.10
2019-05-22T20:01:22.602Z,16.00
2019-05-22T20:03:53.407Z,16.00
2019-05-22T20:06:23.824Z,16.00
2019-05-22T20:08:54.964Z,16.00
2019-05-22T20:11:24.792Z,15.90
2019-05-22T20:13:54.584Z,15.80
2019-05-22T20:16:25.209Z,15.90
2019-05-22T20:18:55.402Z,15.80
2019-05-22T20:21:26.019Z,15.80
2019-05-22T20:23:56.237Z,15.70
2019-05-22T20:26:26.347Z,15.70
2019-05-22T20:28:56.488Z,15.70
2019-05-22T20:31:27.363Z,15.70
2019-05-22T20:33:58.677Z,15.60
2019-05-22T20:36:28.594Z,15.70
2019-05-22T20:38:58.983Z,15.60
2019-05-22T20:41:29.458Z,15.50
2019-05-22T20:44:01.346Z,15.50
2019-05-22T20:46:32.582Z,15.40
2019-05-22T20:49:02.826Z,15.50
2019-05-22T20:51:33.407Z,15.50
2019-05-22T20:54:08.732Z,15.60
2019-05-22T20:56:39.832Z,15.60
2019-05-22T20:59:10.948Z,15.50
2019-05-22T21:01:40.907Z,15.60
2019-05-22T21:04:13.806Z,15.50
2019-05-22T21:06:54.886Z,15.50
2019-05-22T21:09:26.153Z,15.50
2019-05-22T21:11:56.787Z,15.50
2019-05-22T21:14:28.574Z,15.50
2019-05-22T21:16:58.645Z,15.60
2019-05-22T21:19:30.143Z,15.40
2019-05-22T21:22:22.915Z,15.40
2019-05-22T21:24:53.273Z,15.40
2019-05-22T21:27:23.782Z,15.30
2019-05-22T21:29:54.490Z,15.20
2019-05-22T21:32:24.766Z,15.20
2019-05-22T21:34:55.529Z,15.10
2019-05-22T21:37:26.795Z,15.00
2019-05-22T21:39:57.781Z,15.00
2019-05-22T21:42:28.934Z,15.00
2019-05-22T21:45:00.299Z,15.00
2019-05-22T21:47:30.703Z,14.90
2019-05-22T21:50:00.774Z,14.90
2019-05-22T21:52:31.505Z,14.90
2019-05-22T21:55:01.870Z,14.90
2019-05-22T21:57:32.478Z,14.80
2019-05-22T22:00:02.769Z,14.80
2019-05-22T22:02:37.607Z,14.80
2019-05-22T22:05:08.338Z,14.80
2019-05-22T22:07:38.279Z,14.80
2019-05-22T22:10:10.167Z,14.80
2019-05-22T22:12:39.688Z,14.70
2019-05-22T22:15:10.583Z,14.70
2019-05-22T22:17:42.384Z,14.70
2019-05-22T22:20:12.793Z,14.60
2019-05-22T22:22:42.404Z,14.70
2019-05-22T22:25:13.919Z,14.60
2019-05-22T22:27:44.669Z,14.70
2019-05-22T22:30:30.395Z,14.60
2019-05-22T22:33:03.571Z,14.70
2019-05-22T22:35:33.951Z,14.60
2019-05-22T22:38:04.650Z,14.60
2019-05-22T22:40:35.831Z,14.60
2019-05-22T22:43:06.076Z,14.60
2019-05-22T22:45:51.025Z,14.50
2019-05-22T22:48:23.595Z,14.60
2019-05-22T22:50:53.643Z,14.50
2019-05-22T22:53:25.503Z,14.50
2019-05-22T22:55:57.136Z,14.50
2019-05-22T22:58:28.360Z,14.50
2019-05-22T23:00:58.794Z,14.50
2019-05-22T23:03:30.089Z,14.60
2019-05-22T23:06:01.317Z,14.40
2019-05-22T23:08:34.859Z,14.40
2019-05-22T23:11:06.845Z,14.40
2019-05-22T23:13:38.385Z,14.40
2019-05-22T23:16:09.855Z,14.40
2019-05-22T23:19:31.592Z,14.30
2019-05-22T23:22:01.388Z,14.30
2019-05-22T23:24:33.319Z,14.40
2019-05-22T23:27:04.441Z,14.30
2019-05-22T23:29:34.804Z,14.30
2019-05-22T23:32:06.662Z,14.30
2019-05-22T23:34:36.574Z,14.30
2019-05-22T23:37:10.575Z,14.30
2019-05-22T23:39:40.834Z,14.40
2019-05-22T23:42:16.220Z,14.40
2019-05-22T23:44:47.844Z,14.40
2019-05-22T23:47:20.096Z,14.30
2019-05-22T23:49:50.957Z,14.30
2019-05-22T23:52:21.174Z,14.30
2019-05-22T23:54:52.334Z,14.30
2019-05-22T23:57:24.070Z,14.30
